sensor_id;sensor_type;location;lat;lon;timestamp;pressure;altitude;pressure_sealevel;temperature;humidity
23261;BME280;11799;47.740;-3.390;2023-04-26T00:01:55;101284.84;;;10.39;100.00
23261;BME280;11799;47.740;-3.390;2023-04-26T00:04:22;101301.38;;;10.41;100.00
23261;BME280;11799;47.740;-3.390;2023-04-26T00:06:48;101303.19;;;10.41;100.00
23261;BME280;11799;47.740;-3.390;2023-04-26T00:09:14;101301.38;;;10.41;100.00
23261;BME280;11799;47.740;-3.390;2023-04-26T00:11:40;101303.19;;;10.41;100.00
23261;BME280;11799;47.740;-3.390;2023-04-26T00:14:05;101304.16;;;10.40;100.00
23261;BME280;11799;47.740;-3.390;2023-04-26T00:16:31;101305.09;;;10.39;100.00
23261;BME280;11799;47.740;-3.390;2023-04-26T00:18:57;101311.25;;;10.39;100.00
23261;BME280;11799;47.740;-3.390;2023-04-26T00:21:22;101305.22;;;10.37;100.00
23261;BME280;11799;47.740;-3.390;2023-04-26T00:23:48;101302.56;;;10.37;100.00
23261;BME280;11799;47.740;-3.390;2023-04-26T00:26:13;101294.13;;;10.32;100.00
23261;BME280;11799;47.740;-3.390;2023-04-26T00:28:39;101285.38;;;10.32;100.00
23261;BME280;11799;47.740;-3.390;2023-04-26T00:31:04;101285.56;;;10.29;100.00
23261;BME280;11799;47.740;-3.390;2023-04-26T00:33:30;101287.38;;;10.28;100.00
23261;BME280;11799;47.740;-3.390;2023-04-26T00:35:55;101287.16;;;10.31;100.00
23261;BME280;11799;47.740;-3.390;2023-04-26T00:38:21;101285.56;;;10.29;100.00
23261;BME280;11799;47.740;-3.390;2023-04-26T00:40:46;101284.72;;;10.28;100.00
23261;BME280;11799;47.740;-3.390;2023-04-26T00:43:12;101273.31;;;10.28;100.00
23261;BME280;11799;47.740;-3.390;2023-04-26T00:45:38;101273.31;;;10.28;100.00
23261;BME280;11799;47.740;-3.390;2023-04-26T00:48:04;101274.16;;;10.28;100.00
23261;BME280;11799;47.740;-3.390;2023-04-26T00:50:30;101270.91;;;10.24;100.00
23261;BME280;11799;47.740;-3.390;2023-04-26T00:53:00;101278.59;;;10.28;100.00
23261;BME280;11799;47.740;-3.390;2023-04-26T00:55:26;101275.22;;;10.25;100.00
23261;BME280;11799;47.740;-3.390;2023-04-26T00:57:52;101276.06;;;10.26;100.00
23261;BME280;11799;47.740;-3.390;2023-04-26T01:00:19;101270.16;;;10.22;100.00
23261;BME280;11799;47.740;-3.390;2023-04-26T01:02:45;101275.66;;;10.19;100.00
23261;BME280;11799;47.740;-3.390;2023-04-26T01:05:11;101273.75;;;10.21;100.00
23261;BME280;11799;47.740;-3.390;2023-04-26T01:07:37;101267.63;;;10.21;100.00
23261;BME280;11799;47.740;-3.390;2023-04-26T01:10:04;101260.72;;;10.18;100.00
23261;BME280;11799;47.740;-3.390;2023-04-26T01:12:31;101254.59;;;10.18;100.00
23261;BME280;11799;47.740;-3.390;2023-04-26T01:14:58;101242.19;;;10.20;100.00
23261;BME280;11799;47.740;-3.390;2023-04-26T01:17:24;101235.09;;;10.20;100.00
23261;BME280;11799;47.740;-3.390;2023-04-26T01:19:51;101234.25;;;10.20;100.00
23261;BME280;11799;47.740;-3.390;2023-04-26T01:22:17;101232.53;;;10.19;100.00
23261;BME280;11799;47.740;-3.390;2023-04-26T01:24:44;101234.34;;;10.18;100.00
23261;BME280;11799;47.740;-3.390;2023-04-26T01:27:11;101228.13;;;10.19;100.00
23261;BME280;11799;47.740;-3.390;2023-04-26T01:29:39;101223.72;;;10.20;100.00
23261;BME280;11799;47.740;-3.390;2023-04-26T01:32:05;101226.41;;;10.18;100.00
23261;BME280;11799;47.740;-3.390;2023-04-26T01:34:30;101222.84;;;10.19;100.00
23261;BME280;11799;47.740;-3.390;2023-04-26T01:36:57;101214.16;;;10.17;100.00
23261;BME280;11799;47.740;-3.390;2023-04-26T01:39:23;101225.50;;;10.19;100.00
23261;BME280;11799;47.740;-3.390;2023-04-26T01:41:49;101217.59;;;10.19;100.00
23261;BME280;11799;47.740;-3.390;2023-04-26T01:44:14;101217.47;;;10.21;100.00
23261;BME280;11799;47.740;-3.390;2023-04-26T01:46:40;101206.06;;;10.20;100.00
23261;BME280;11799;47.740;-3.390;2023-04-26T01:49:06;101204.19;;;10.22;100.00
23261;BME280;11799;47.740;-3.390;2023-04-26T01:51:31;101194.47;;;10.23;100.00
23261;BME280;11799;47.740;-3.390;2023-04-26T01:53:58;101205.00;;;10.23;100.00
23261;BME280;11799;47.740;-3.390;2023-04-26T01:56:24;101202.38;;;10.23;100.00
23261;BME280;11799;47.740;-3.390;2023-04-26T01:58:51;101194.47;;;10.23;100.00
23261;BME280;11799;47.740;-3.390;2023-04-26T02:01:17;101187.28;;;10.25;100.00
23261;BME280;11799;47.740;-3.390;2023-04-26T02:03:43;101193.63;;;10.22;100.00
23261;BME280;11799;47.740;-3.390;2023-04-26T02:06:09;101181.25;;;10.23;100.00
23261;BME280;11799;47.740;-3.390;2023-04-26T02:08:35;101185.59;;;10.24;100.00
23261;BME280;11799;47.740;-3.390;2023-04-26T02:11:01;101185.69;;;10.22;100.00
23261;BME280;11799;47.740;-3.390;2023-04-26T02:13:26;101189.06;;;10.24;100.00
23261;BME280;11799;47.740;-3.390;2023-04-26T02:15:53;101188.22;;;10.24;100.00
23261;BME280;11799;47.740;-3.390;2023-04-26T02:18:18;101184.63;;;10.25;100.00
23261;BME280;11799;47.740;-3.390;2023-04-26T02:20:46;101188.13;;;10.25;100.00
23261;BME280;11799;47.740;-3.390;2023-04-26T02:23:11;101183.69;;;10.26;100.00
23261;BME280;11799;47.740;-3.390;2023-04-26T02:25:37;101180.41;;;10.22;100.00
23261;BME280;11799;47.740;-3.390;2023-04-26T02:28:06;101183.06;;;10.22;100.00
23261;BME280;11799;47.740;-3.390;2023-04-26T02:30:32;101183.91;;;10.23;100.00
23261;BME280;11799;47.740;-3.390;2023-04-26T02:32:57;101181.38;;;10.21;100.00
23261;BME280;11799;47.740;-3.390;2023-04-26T02:35:23;101175.88;;;10.24;100.00
23261;BME280;11799;47.740;-3.390;2023-04-26T02:37:49;101183.06;;;10.22;100.00
23261;BME280;11799;47.740;-3.390;2023-04-26T02:40:18;101179.69;;;10.20;100.00
23261;BME280;11799;47.740;-3.390;2023-04-26T02:42:44;101182.50;;;10.17;100.00
23261;BME280;11799;47.740;-3.390;2023-04-26T02:45:09;101182.41;;;10.19;100.00
23261;BME280;11799;47.740;-3.390;2023-04-26T02:47:35;101184.19;;;10.18;100.00
23261;BME280;11799;47.740;-3.390;2023-04-26T02:50:07;101179.75;;;10.19;100.00
23261;BME280;11799;47.740;-3.390;2023-04-26T02:52:34;101178.00;;;10.19;100.00
23261;BME280;11799;47.740;-3.390;2023-04-26T02:55:02;101184.84;;;10.22;100.00
23261;BME280;11799;47.740;-3.390;2023-04-26T02:57:28;101184.00;;;10.21;100.00
23261;BME280;11799;47.740;-3.390;2023-04-26T02:59:54;101178.84;;;10.20;100.00
23261;BME280;11799;47.740;-3.390;2023-04-26T03:02:20;101175.44;;;10.18;100.00
23261;BME280;11799;47.740;-3.390;2023-04-26T03:04:46;101169.31;;;10.17;100.00
23261;BME280;11799;47.740;-3.390;2023-04-26T03:07:12;101171.00;;;10.18;100.00
23261;BME280;11799;47.740;-3.390;2023-04-26T03:09:38;101172.78;;;10.18;100.00
23261;BME280;11799;47.740;-3.390;2023-04-26T03:12:07;101168.47;;;10.17;100.00
23261;BME280;11799;47.740;-3.390;2023-04-26T03:14:34;101173.13;;;10.13;100.00
23261;BME280;11799;47.740;-3.390;2023-04-26T03:17:00;101170.25;;;10.16;100.00
23261;BME280;11799;47.740;-3.390;2023-04-26T03:19:28;101161.38;;;10.17;100.00
23261;BME280;11799;47.740;-3.390;2023-04-26T03:21:55;101164.97;;;10.16;100.00
23261;BME280;11799;47.740;-3.390;2023-04-26T03:24:21;101161.38;;;10.17;100.00
23261;BME280;11799;47.740;-3.390;2023-04-26T03:26:48;101169.97;;;10.21;100.00
23261;BME280;11799;47.740;-3.390;2023-04-26T03:29:15;101166.56;;;10.19;100.00
23261;BME280;11799;47.740;-3.390;2023-04-26T03:31:41;101171.84;;;10.19;100.00
23261;BME280;11799;47.740;-3.390;2023-04-26T03:34:06;101164.78;;;10.19;100.00
23261;BME280;11799;47.740;-3.390;2023-04-26T03:36:33;101174.41;;;10.20;100.00
23261;BME280;11799;47.740;-3.390;2023-04-26T03:38:59;101169.13;;;10.20;100.00
23261;BME280;11799;47.740;-3.390;2023-04-26T03:41:25;101165.63;;;10.20;100.00
23261;BME280;11799;47.740;-3.390;2023-04-26T03:43:52;101169.13;;;10.20;100.00
23261;BME280;11799;47.740;-3.390;2023-04-26T03:46:18;101171.66;;;10.22;100.00
23261;BME280;11799;47.740;-3.390;2023-04-26T03:48:44;101167.22;;;10.22;100.00
23261;BME280;11799;47.740;-3.390;2023-04-26T03:51:10;101161.00;;;10.23;100.00
23261;BME280;11799;47.740;-3.390;2023-04-26T03:53:36;101149.59;;;10.23;100.00
23261;BME280;11799;47.740;-3.390;2023-04-26T03:56:02;101167.00;;;10.25;100.00
23261;BME280;11799;47.740;-3.390;2023-04-26T03:58:29;101168.06;;;10.23;100.00
23261;BME280;11799;47.740;-3.390;2023-04-26T04:00:56;101167.13;;;10.24;100.00
23261;BME280;11799;47.740;-3.390;2023-04-26T04:03:22;101159.09;;;10.25;100.00
23261;BME280;11799;47.740;-3.390;2023-04-26T04:05:48;101166.06;;;10.27;100.00
23261;BME280;11799;47.740;-3.390;2023-04-26T04:08:14;101154.75;;;10.24;100.00
23261;BME280;11799;47.740;-3.390;2023-04-26T04:10:40;101162.69;;;10.24;100.00
23261;BME280;11799;47.740;-3.390;2023-04-26T04:13:08;101154.75;;;10.24;100.00
23261;BME280;11799;47.740;-3.390;2023-04-26T04:15:34;101163.53;;;10.25;100.00
23261;BME280;11799;47.740;-3.390;2023-04-26T04:17:59;101166.28;;;10.23;100.00
23261;BME280;11799;47.740;-3.390;2023-04-26T04:20:25;101166.06;;;10.27;100.00
23261;BME280;11799;47.740;-3.390;2023-04-26T04:22:53;101170.38;;;10.28;100.00
23261;BME280;11799;47.740;-3.390;2023-04-26T04:25:19;101172.06;;;10.29;100.00
23261;BME280;11799;47.740;-3.390;2023-04-26T04:27:47;101172.19;;;10.27;100.00
23261;BME280;11799;47.740;-3.390;2023-04-26T04:30:13;101165.00;;;10.29;100.00
23261;BME280;11799;47.740;-3.390;2023-04-26T04:32:40;101175.44;;;10.31;100.00
23261;BME280;11799;47.740;-3.390;2023-04-26T04:35:10;101158.88;;;10.29;100.00
23261;BME280;11799;47.740;-3.390;2023-04-26T04:37:36;101160.56;;;10.30;100.00
23261;BME280;11799;47.740;-3.390;2023-04-26T04:40:03;101167.75;;;10.28;100.00
23261;BME280;11799;47.740;-3.390;2023-04-26T04:42:31;101159.72;;;10.29;100.00
23261;BME280;11799;47.740;-3.390;2023-04-26T04:44:57;101164.03;;;10.30;100.00
23261;BME280;11799;47.740;-3.390;2023-04-26T04:47:25;101152.41;;;10.33;100.00
23261;BME280;11799;47.740;-3.390;2023-04-26T04:49:51;101152.41;;;10.33;100.00
23261;BME280;11799;47.740;-3.390;2023-04-26T04:52:19;101155.78;;;10.35;100.00
23261;BME280;11799;47.740;-3.390;2023-04-26T04:54:47;101153.25;;;10.33;100.00
23261;BME280;11799;47.740;-3.390;2023-04-26T04:57:13;101155.91;;;10.33;100.00
23261;BME280;11799;47.740;-3.390;2023-04-26T04:59:42;101160.34;;;10.33;100.00
23261;BME280;11799;47.740;-3.390;2023-04-26T05:02:08;101164.56;;;10.35;100.00
23261;BME280;11799;47.740;-3.390;2023-04-26T05:04:34;101163.59;;;10.36;100.00
23261;BME280;11799;47.740;-3.390;2023-04-26T05:06:59;101167.94;;;10.37;100.00
23261;BME280;11799;47.740;-3.390;2023-04-26T05:09:26;101168.78;;;10.38;100.00
23261;BME280;11799;47.740;-3.390;2023-04-26T05:11:51;101162.88;;;10.34;100.00
23261;BME280;11799;47.740;-3.390;2023-04-26T05:14:17;101161.06;;;10.35;100.00
23261;BME280;11799;47.740;-3.390;2023-04-26T05:16:43;101173.09;;;10.39;100.00
23261;BME280;11799;47.740;-3.390;2023-04-26T05:19:08;101174.78;;;10.40;100.00
23261;BME280;11799;47.740;-3.390;2023-04-26T05:21:34;101172.16;;;10.40;100.00
23261;BME280;11799;47.740;-3.390;2023-04-26T05:23:59;101175.75;;;10.39;100.00
23261;BME280;11799;47.740;-3.390;2023-04-26T05:26:25;101174.06;;;10.38;100.00
23261;BME280;11799;47.740;-3.390;2023-04-26T05:28:57;101179.22;;;10.39;100.00
23261;BME280;11799;47.740;-3.390;2023-04-26T05:31:31;101173.94;;;10.39;100.00
23261;BME280;11799;47.740;-3.390;2023-04-26T05:34:20;101177.44;;;10.40;100.00
23261;BME280;11799;47.740;-3.390;2023-04-26T05:36:49;101175.50;;;10.42;100.00
23261;BME280;11799;47.740;-3.390;2023-04-26T05:39:16;101174.53;;;10.43;100.00
23261;BME280;11799;47.740;-3.390;2023-04-26T05:41:42;101168.53;;;10.41;100.00
23261;BME280;11799;47.740;-3.390;2023-04-26T05:44:07;101170.09;;;10.43;100.00
23261;BME280;11799;47.740;-3.390;2023-04-26T05:46:33;101165.56;;;10.45;100.00
23261;BME280;11799;47.740;-3.390;2023-04-26T05:48:59;101174.31;;;10.46;100.00
23261;BME280;11799;47.740;-3.390;2023-04-26T05:51:26;101178.66;;;10.47;100.00
23261;BME280;11799;47.740;-3.390;2023-04-26T05:53:52;101177.81;;;10.46;100.00
23261;BME280;11799;47.740;-3.390;2023-04-26T05:56:18;101178.44;;;10.50;100.00
23261;BME280;11799;47.740;-3.390;2023-04-26T05:58:43;101175.78;;;10.50;100.00
23261;BME280;11799;47.740;-3.390;2023-04-26T06:01:09;101178.31;;;10.51;100.00
23261;BME280;11799;47.740;-3.390;2023-04-26T06:03:36;101168.59;;;10.52;100.00
23261;BME280;11799;47.740;-3.390;2023-04-26T06:06:02;101177.16;;;10.55;100.00
23261;BME280;11799;47.740;-3.390;2023-04-26T06:08:29;101169.13;;;10.57;100.00
23261;BME280;11799;47.740;-3.390;2023-04-26T06:10:55;101173.44;;;10.58;100.00
23261;BME280;11799;47.740;-3.390;2023-04-26T06:13:20;101170.81;;;10.58;100.00
23261;BME280;11799;47.740;-3.390;2023-04-26T06:15:46;101181.16;;;10.61;100.00
23261;BME280;11799;47.740;-3.390;2023-04-26T06:18:12;101180.19;;;10.62;100.00
23261;BME280;11799;47.740;-3.390;2023-04-26T06:20:37;101179.88;;;10.67;100.00
23261;BME280;11799;47.740;-3.390;2023-04-26T06:23:05;101171.09;;;10.66;100.00
23261;BME280;11799;47.740;-3.390;2023-04-26T06:25:31;101183.97;;;10.71;100.00
23261;BME280;11799;47.740;-3.390;2023-04-26T06:27:59;101185.53;;;10.73;100.00
23261;BME280;11799;47.740;-3.390;2023-04-26T06:30:25;101182.69;;;10.76;100.00
23261;BME280;11799;47.740;-3.390;2023-04-26T06:32:51;101190.38;;;10.79;100.00
23261;BME280;11799;47.740;-3.390;2023-04-26T06:35:16;101190.06;;;10.84;100.00
23261;BME280;11799;47.740;-3.390;2023-04-26T06:37:42;101188.25;;;10.84;100.00
23261;BME280;11799;47.740;-3.390;2023-04-26T06:40:08;101190.69;;;10.87;100.00
23261;BME280;11799;47.740;-3.390;2023-04-26T06:42:35;101199.34;;;10.89;100.00
23261;BME280;11799;47.740;-3.390;2023-04-26T06:45:23;101200.81;;;10.94;100.00
23261;BME280;11799;47.740;-3.390;2023-04-26T06:47:52;101204.06;;;10.97;100.00
23261;BME280;11799;47.740;-3.390;2023-04-26T06:50:22;101212.00;;;10.97;100.00
23261;BME280;11799;47.740;-3.390;2023-04-26T06:52:47;101211.72;;;11.00;100.00
23261;BME280;11799;47.740;-3.390;2023-04-26T06:55:13;101216.06;;;11.01;100.00
23261;BME280;11799;47.740;-3.390;2023-04-26T06:57:38;101209.72;;;11.04;100.00
23261;BME280;11799;47.740;-3.390;2023-04-26T07:00:04;101202.75;;;11.03;100.00
23261;BME280;11799;47.740;-3.390;2023-04-26T07:02:30;101212.13;;;11.07;100.00
23261;BME280;11799;47.740;-3.390;2023-04-26T07:04:56;101206.28;;;11.14;100.00
23261;BME280;11799;47.740;-3.390;2023-04-26T07:07:22;101209.53;;;11.18;100.00
23261;BME280;11799;47.740;-3.390;2023-04-26T07:09:47;101213.88;;;11.19;100.00
23261;BME280;11799;47.740;-3.390;2023-04-26T07:12:13;101207.41;;;11.23;100.00
23261;BME280;11799;47.740;-3.390;2023-04-26T07:14:39;101204.41;;;11.28;100.00
23261;BME280;11799;47.740;-3.390;2023-04-26T07:17:05;101202.28;;;11.33;100.00
23261;BME280;11799;47.740;-3.390;2023-04-26T07:19:31;101202.06;;;11.36;100.00
23261;BME280;11799;47.740;-3.390;2023-04-26T07:21:57;101193.66;;;11.42;100.00
23261;BME280;11799;47.740;-3.390;2023-04-26T07:24:22;101204.13;;;11.43;100.00
23261;BME280;11799;47.740;-3.390;2023-04-26T07:26:48;101207.25;;;11.48;100.00
23261;BME280;11799;47.740;-3.390;2023-04-26T07:29:13;101213.06;;;11.53;100.00
23261;BME280;11799;47.740;-3.390;2023-04-26T07:31:39;101207.25;;;11.59;100.00
23261;BME280;11799;47.740;-3.390;2023-04-26T07:34:05;101208.59;;;11.65;100.00
23261;BME280;11799;47.740;-3.390;2023-04-26T07:36:30;101216.31;;;11.68;100.00
23261;BME280;11799;47.740;-3.390;2023-04-26T07:38:57;101215.22;;;11.71;100.00
23261;BME280;11799;47.740;-3.390;2023-04-26T07:41:22;101226.13;;;11.79;100.00
23261;BME280;11799;47.740;-3.390;2023-04-26T07:43:48;101219.97;;;11.78;100.00
23261;BME280;11799;47.740;-3.390;2023-04-26T07:46:13;101235.63;;;11.81;100.00
23261;BME280;11799;47.740;-3.390;2023-04-26T07:48:39;101234.53;;;11.84;100.00
23261;BME280;11799;47.740;-3.390;2023-04-26T07:51:09;101228.19;;;11.86;100.00
23261;BME280;11799;47.740;-3.390;2023-04-26T07:53:35;101229.00;;;11.87;100.00
23261;BME280;11799;47.740;-3.390;2023-04-26T07:56:03;101224.44;;;11.89;100.00
23261;BME280;11799;47.740;-3.390;2023-04-26T07:58:30;101224.09;;;11.94;100.00
23261;BME280;11799;47.740;-3.390;2023-04-26T08:00:58;101225.44;;;11.99;100.00
23261;BME280;11799;47.740;-3.390;2023-04-26T08:03:23;101215.44;;;12.03;100.00
23261;BME280;11799;47.740;-3.390;2023-04-26T08:05:49;101212.44;;;12.07;100.00
23261;BME280;11799;47.740;-3.390;2023-04-26T08:08:14;101211.81;;;12.15;100.00
23261;BME280;11799;47.740;-3.390;2023-04-26T08:10:40;101207.97;;;12.19;100.00
23261;BME280;11799;47.740;-3.390;2023-04-26T08:13:07;101204.97;;;12.23;100.00
23261;BME280;11799;47.740;-3.390;2023-04-26T08:15:33;101208.81;;;12.31;100.00
23261;BME280;11799;47.740;-3.390;2023-04-26T08:17:58;101217.50;;;12.33;100.00
23261;BME280;11799;47.740;-3.390;2023-04-26T08:20:24;101226.50;;;12.41;100.00
23261;BME280;11799;47.740;-3.390;2023-04-26T08:22:54;101214.34;;;12.50;100.00
23261;BME280;11799;47.740;-3.390;2023-04-26T08:25:20;101220.59;;;12.60;100.00
23261;BME280;11799;47.740;-3.390;2023-04-26T08:27:45;101210.38;;;12.67;100.00
23261;BME280;11799;47.740;-3.390;2023-04-26T08:30:11;101216.81;;;12.74;100.00
23261;BME280;11799;47.740;-3.390;2023-04-26T08:32:37;101213.69;;;12.80;100.00
23261;BME280;11799;47.740;-3.390;2023-04-26T08:35:02;101209.44;;;12.88;100.00
23261;BME280;11799;47.740;-3.390;2023-04-26T08:37:28;101220.41;;;12.95;100.00
23261;BME280;11799;47.740;-3.390;2023-04-26T08:39:54;101216.66;;;12.98;100.00
23261;BME280;11799;47.740;-3.390;2023-04-26T08:42:19;101208.44;;;13.01;100.00
23261;BME280;11799;47.740;-3.390;2023-04-26T08:44:48;101215.91;;;13.07;100.00
23261;BME280;11799;47.740;-3.390;2023-04-26T08:47:17;101225.03;;;13.14;100.00
23261;BME280;11799;47.740;-3.390;2023-04-26T08:49:46;101226.38;;;13.19;100.00
23261;BME280;11799;47.740;-3.390;2023-04-26T08:52:18;101219.97;;;13.22;100.00
23261;BME280;11799;47.740;-3.390;2023-04-26T08:54:49;101219.03;;;13.23;100.00
23261;BME280;11799;47.740;-3.390;2023-04-26T08:57:17;101210.81;;;13.26;100.00
23261;BME280;11799;47.740;-3.390;2023-04-26T08:59:43;101208.03;;;13.28;100.00
23261;BME280;11799;47.740;-3.390;2023-04-26T09:02:10;101213.75;;;13.33;100.00
23261;BME280;11799;47.740;-3.390;2023-04-26T09:04:38;101222.06;;;13.39;100.00
23261;BME280;11799;47.740;-3.390;2023-04-26T09:07:06;101227.44;;;13.49;100.00
23261;BME280;11799;47.740;-3.390;2023-04-26T09:09:34;101233.78;;;13.58;100.00
23261;BME280;11799;47.740;-3.390;2023-04-26T09:12:03;101229.66;;;13.65;100.00
23261;BME280;11799;47.740;-3.390;2023-04-26T09:14:29;101233.75;;;13.69;100.00
23261;BME280;11799;47.740;-3.390;2023-04-26T09:16:55;101238.66;;;13.73;100.00
23261;BME280;11799;47.740;-3.390;2023-04-26T09:19:40;101238.41;;;13.76;100.00
23261;BME280;11799;47.740;-3.390;2023-04-26T09:22:09;101241.91;;;13.77;100.00
23261;BME280;11799;47.740;-3.390;2023-04-26T09:24:48;101247.06;;;13.78;100.00
23261;BME280;11799;47.740;-3.390;2023-04-26T09:27:18;101254.66;;;13.83;100.00
23261;BME280;11799;47.740;-3.390;2023-04-26T09:29:57;101254.25;;;13.87;100.00
23261;BME280;11799;47.740;-3.390;2023-04-26T09:32:24;101255.28;;;13.96;100.00
23261;BME280;11799;47.740;-3.390;2023-04-26T09:34:50;101255.28;;;13.96;100.00
23261;BME280;11799;47.740;-3.390;2023-04-26T09:37:16;101257.16;;;14.05;100.00
23261;BME280;11799;47.740;-3.390;2023-04-26T09:39:41;101260.25;;;14.10;100.00
23261;BME280;11799;47.740;-3.390;2023-04-26T09:42:08;101255.66;;;14.12;100.00
23261;BME280;11799;47.740;-3.390;2023-04-26T09:44:34;101264.13;;;14.06;100.00
23261;BME280;11799;47.740;-3.390;2023-04-26T09:47:10;101271.13;;;14.07;100.00
23261;BME280;11799;47.740;-3.390;2023-04-26T09:49:46;101270.28;;;14.07;100.00
23261;BME280;11799;47.740;-3.390;2023-04-26T09:52:13;101267.63;;;14.07;100.00
23261;BME280;11799;47.740;-3.390;2023-04-26T09:54:48;101258.97;;;14.05;100.00
23261;BME280;11799;47.740;-3.390;2023-04-26T09:57:17;101273.53;;;14.10;100.00
23261;BME280;11799;47.740;-3.390;2023-04-26T09:59:45;101282.59;;;14.08;100.00
23261;BME280;11799;47.740;-3.390;2023-04-26T10:04:51;101289.13;;;14.04;100.00
23261;BME280;11799;47.740;-3.390;2023-04-26T10:07:22;101285.66;;;14.03;100.00
23261;BME280;11799;47.740;-3.390;2023-04-26T10:09:48;101286.75;;;14.01;100.00
23261;BME280;11799;47.740;-3.390;2023-04-26T10:12:16;101282.28;;;14.01;100.00
23261;BME280;11799;47.740;-3.390;2023-04-26T10:14:44;101282.66;;;13.97;100.00
23261;BME280;11799;47.740;-3.390;2023-04-26T10:17:11;101285.19;;;13.98;100.00
23261;BME280;11799;47.740;-3.390;2023-04-26T10:19:38;101279.88;;;13.98;100.00
23261;BME280;11799;47.740;-3.390;2023-04-26T10:22:08;101287.31;;;14.04;100.00
23261;BME280;11799;47.740;-3.390;2023-04-26T10:24:35;101281.38;;;14.12;100.00
23261;BME280;11799;47.740;-3.390;2023-04-26T10:27:02;101282.91;;;14.14;100.00
23261;BME280;11799;47.740;-3.390;2023-04-26T10:32:22;101280.41;;;14.13;100.00
23261;BME280;11799;47.740;-3.390;2023-04-26T10:35:10;101292.38;;;14.28;100.00
23261;BME280;11799;47.740;-3.390;2023-04-26T10:45:42;101272.75;;;14.80;100.00
23261;BME280;11799;47.740;-3.390;2023-04-26T10:58:48;101263.84;;;15.01;100.00
23261;BME280;11799;47.740;-3.390;2023-04-26T11:01:17;101290.00;;;15.05;100.00
23261;BME280;11799;47.740;-3.390;2023-04-26T11:06:23;101297.59;;;15.00;100.00
23261;BME280;11799;47.740;-3.390;2023-04-26T11:08:49;101294.47;;;15.05;100.00
23261;BME280;11799;47.740;-3.390;2023-04-26T11:11:16;101280.63;;;15.11;100.00
23261;BME280;11799;47.740;-3.390;2023-04-26T11:13:44;101282.03;;;15.15;100.00
23261;BME280;11799;47.740;-3.390;2023-04-26T11:16:13;101286.13;;;15.19;100.00
23261;BME280;11799;47.740;-3.390;2023-04-26T11:18:40;101275.03;;;15.14;100.00
23261;BME280;11799;47.740;-3.390;2023-04-26T11:21:07;101275.88;;;15.14;100.00
23261;BME280;11799;47.740;-3.390;2023-04-26T11:23:33;101278.81;;;15.11;100.00
23261;BME280;11799;47.740;-3.390;2023-04-26T11:26:05;101287.63;;;15.12;100.00
23261;BME280;11799;47.740;-3.390;2023-04-26T11:28:34;101274.63;;;15.09;100.00
23261;BME280;11799;47.740;-3.390;2023-04-26T11:31:04;101277.81;;;15.03;100.00
23261;BME280;11799;47.740;-3.390;2023-04-26T11:33:30;101267.03;;;15.04;100.00
23261;BME280;11799;47.740;-3.390;2023-04-26T11:35:58;101263.97;;;15.09;100.00
23261;BME280;11799;47.740;-3.390;2023-04-26T11:38:26;101250.81;;;15.07;100.00
23261;BME280;11799;47.740;-3.390;2023-04-26T11:40:57;101247.72;;;15.12;100.00
23261;BME280;11799;47.740;-3.390;2023-04-26T11:43:49;101261.47;;;15.17;100.00
23261;BME280;11799;47.740;-3.390;2023-04-26T11:46:14;101262.00;;;15.11;100.00
23261;BME280;11799;47.740;-3.390;2023-04-26T11:48:41;101261.59;;;15.06;100.00
23261;BME280;11799;47.740;-3.390;2023-04-26T11:51:07;101257.94;;;15.07;100.00
23261;BME280;11799;47.740;-3.390;2023-04-26T11:53:36;101258.94;;;15.06;100.00
23261;BME280;11799;47.740;-3.390;2023-04-26T11:56:04;101270.41;;;15.06;100.00
23261;BME280;11799;47.740;-3.390;2023-04-26T11:58:30;101264.81;;;15.09;100.00
23261;BME280;11799;47.740;-3.390;2023-04-26T12:03:22;101272.81;;;15.29;100.00
23261;BME280;11799;47.740;-3.390;2023-04-26T12:05:53;101278.44;;;15.35;100.00
23261;BME280;11799;47.740;-3.390;2023-04-26T12:08:23;101273.41;;;15.42;100.00
23261;BME280;11799;47.740;-3.390;2023-04-26T12:10:49;101286.72;;;15.51;100.00
23261;BME280;11799;47.740;-3.390;2023-04-26T12:13:15;101283.53;;;15.58;100.00
23261;BME280;11799;47.740;-3.390;2023-04-26T12:15:41;101280.69;;;15.69;100.00
23261;BME280;11799;47.740;-3.390;2023-04-26T12:18:08;101292.47;;;15.76;100.00
23261;BME280;11799;47.740;-3.390;2023-04-26T12:20:36;101297.91;;;15.84;100.00
23261;BME280;11799;47.740;-3.390;2023-04-26T12:23:04;101285.72;;;15.91;100.00
23261;BME280;11799;47.740;-3.390;2023-04-26T12:25:34;101292.03;;;15.90;100.00
23261;BME280;11799;47.740;-3.390;2023-04-26T12:28:03;101294.28;;;15.95;100.00
23261;BME280;11799;47.740;-3.390;2023-04-26T12:30:29;101291.31;;;15.98;100.00
23261;BME280;11799;47.740;-3.390;2023-04-26T12:33:01;101285.69;;;16.10;100.00
23261;BME280;11799;47.740;-3.390;2023-04-26T12:35:27;101295.88;;;16.25;100.00
23261;BME280;11799;47.740;-3.390;2023-04-26T12:37:52;101298.22;;;16.37;100.00
23261;BME280;11799;47.740;-3.390;2023-04-26T12:40:23;101302.44;;;16.40;100.00
23261;BME280;11799;47.740;-3.390;2023-04-26T12:42:49;101302.81;;;16.55;100.00
23261;BME280;11799;47.740;-3.390;2023-04-26T12:45:16;101304.03;;;16.60;100.00
23261;BME280;11799;47.740;-3.390;2023-04-26T12:47:43;101298.16;;;16.66;100.00
23261;BME280;11799;47.740;-3.390;2023-04-26T12:50:10;101306.16;;;16.66;100.00
23261;BME280;11799;47.740;-3.390;2023-04-26T12:52:38;101305.72;;;16.71;100.00
23261;BME280;11799;47.740;-3.390;2023-04-26T12:55:05;101308.75;;;16.76;100.00
23261;BME280;11799;47.740;-3.390;2023-04-26T12:57:31;101306.25;;;16.74;100.00
23261;BME280;11799;47.740;-3.390;2023-04-26T12:59:57;101306.69;;;16.70;100.00